Time;durP1;ratioP1;P1;durP2;ratioP2;P2;SDS_P1;SDS_P2;PMS_P1;PMS_P2;Temp;Humidity;BMP_temperature;BMP_pressure;BME280_temperature;BME280_humidity;BME280_pressure;Samples;Min_cycle;Max_cycle;Signal;HPM_P1;HPM_P2
2022/10/11 00:00:21;;;;;;;3.08;1.20;;;;;;;6.39;77.63;101189.61;1650416;85;21040;-64
2022/10/11 00:02:52;;;;;;;3.83;1.37;;;;;;;6.36;77.63;101192.13;1652229;86;21025;-67
2022/10/11 00:05:22;;;;;;;3.65;1.32;;;;;;;6.36;77.61;101190.77;1658326;85;21639;-64
2022/10/11 00:07:53;;;;;;;1.98;1.20;;;;;;;6.36;77.56;101186.68;1659684;85;21028;-64
2022/10/11 00:10:22;;;;;;;4.45;1.47;;;;;;;6.34;77.63;101183.25;1661196;86;21485;-65
2022/10/11 00:12:53;;;;;;;5.05;1.27;;;;;;;6.33;77.67;101189.70;1659314;86;21082;-66
2022/10/11 00:15:22;;;;;;;3.70;1.80;;;;;;;6.31;77.67;101176.75;1660229;85;21061;-68
2022/10/11 00:17:53;;;;;;;4.37;1.35;;;;;;;6.31;77.62;101174.03;1660374;86;21089;-64
2022/10/11 00:20:22;;;;;;;6.47;1.60;;;;;;;6.27;77.61;101183.00;1651158;86;21059;-66
2022/10/11 00:22:53;;;;;;;3.87;1.55;;;;;;;6.22;77.68;101173.58;1653548;85;21028;-65
2022/10/11 00:25:23;;;;;;;3.40;1.47;;;;;;;6.19;77.75;101174.73;1657360;86;21503;-65
2022/10/11 00:27:54;;;;;;;3.60;2.05;;;;;;;6.17;77.80;101165.01;1662945;86;21082;-66
2022/10/11 00:30:23;;;;;;;19.77;9.05;;;;;;;6.17;77.86;101169.09;1647245;86;21072;-66
2022/10/11 00:32:52;;;;;;;33.38;14.28;;;;;;;6.17;77.79;101165.01;1651917;85;21123;-66
2022/10/11 00:35:23;;;;;;;29.35;12.58;;;;;;;6.12;77.85;101166.81;1660482;86;21091;-65
2022/10/11 00:37:52;;;;;;;29.75;12.68;;;;;;;6.11;77.86;101165.61;1658171;86;21032;-66
2022/10/11 00:40:21;;;;;;;24.05;10.98;;;;;;;6.06;77.97;101167.92;1618005;86;21063;-64
2022/10/11 00:42:51;;;;;;;21.23;9.23;;;;;;;6.01;78.02;101158.84;1661491;85;21433;-65
2022/10/11 00:45:33;;;;;;;47.58;20.48;;;;;;;5.95;78.14;101157.59;1651154;85;21095;-67
2022/10/11 00:48:19;;;;;;;61.98;27.65;;;;;;;5.95;78.30;101159.45;1636401;85;21070;-64
2022/10/11 00:50:50;;;;;;;73.22;31.57;;;;;;;5.94;78.27;101168.61;1628903;87;21134;-64
2022/10/11 00:53:19;;;;;;;60.75;27.17;;;;;;;5.91;78.34;101167.55;1598026;88;21062;-66
2022/10/11 00:55:55;;;;;;;59.15;24.30;;;;;;;5.91;78.44;101171.12;1593642;90;21059;-67
2022/10/11 00:58:25;;;;;;;44.23;19.05;;;;;;;5.92;78.52;101163.83;1653294;85;21585;-65
2022/10/11 01:00:55;;;;;;;37.95;16.62;;;;;;;5.93;78.51;101163.68;1667167;84;21104;-66
2022/10/11 01:03:25;;;;;;;29.57;12.70;;;;;;;5.94;78.52;101162.67;1667867;84;21501;-66
2022/10/11 01:05:54;;;;;;;20.65;10.78;;;;;;;5.93;78.46;101162.32;1658617;85;21045;-66
2022/10/11 01:08:24;;;;;;;22.02;10.43;;;;;;;5.88;78.37;101152.36;1651889;86;21067;-65
2022/10/11 01:10:54;;;;;;;23.95;10.60;;;;;;;5.80;78.47;101157.65;1653452;85;21071;-65
2022/10/11 01:13:50;;;;;;;25.45;12.43;;;;;;;5.74;78.70;101157.73;1662755;86;21052;-64
2022/10/11 01:17:02;;;;;;;24.67;12.73;;;;;;;5.75;78.96;101158.59;1656151;85;21104;-65
2022/10/11 01:20:00;;;;;;;20.92;10.32;;;;;;;5.80;78.91;101161.73;1666962;86;21109;-67
2022/10/11 01:23:02;;;;;;;21.52;10.82;;;;;;;5.81;78.76;101159.36;1650917;85;21059;-66
2022/10/11 01:25:42;;;;;;;19.12;9.08;;;;;;;5.83;78.82;101161.94;1640458;84;21034;-67
2022/10/11 01:28:46;;;;;;;21.17;9.63;;;;;;;5.84;78.92;101163.64;1656655;85;21045;-66
2022/10/11 01:31:28;;;;;;;20.00;8.53;;;;;;;5.82;79.03;101163.80;1654955;85;21434;-67
2022/10/11 01:34:20;;;;;;;18.30;7.00;;;;;;;5.82;78.99;101164.30;1657552;86;21082;-65
2022/10/11 01:37:14;;;;;;;14.73;5.42;;;;;;;5.79;78.69;101161.88;1656394;86;21043;-66
2022/10/11 01:40:11;;;;;;;9.98;4.25;;;;;;;5.73;78.72;101168.77;1665300;85;21100;-65
2022/10/11 01:42:40;;;;;;;8.73;3.33;;;;;;;5.66;78.89;101169.86;1611218;88;21069;-66
2022/10/11 01:45:15;;;;;;;9.05;3.52;;;;;;;5.61;79.23;101176.73;1609304;88;21155;-65
2022/10/11 01:47:46;;;;;;;9.55;4.37;;;;;;;5.57;79.46;101173.45;1645914;86;21057;-65
2022/10/11 01:50:42;;;;;;;8.60;3.60;;;;;;;5.52;79.60;101166.75;1642736;86;21539;-65
2022/10/11 01:53:41;;;;;;;8.33;3.22;;;;;;;5.50;79.65;101175.55;1650637;86;21132;-67
2022/10/11 01:56:34;;;;;;;7.95;3.60;;;;;;;5.44;79.65;101177.48;1658045;86;21075;-67
2022/10/11 01:59:38;;;;;;;7.70;3.20;;;;;;;5.37;79.82;101175.35;1658302;85;21126;-65
2022/10/11 02:02:42;;;;;;;8.28;3.25;;;;;;;5.33;80.00;101181.22;1662806;86;21015;-65
2022/10/11 02:05:29;;;;;;;8.93;3.25;;;;;;;5.27;80.18;101188.09;1634294;87;21055;-65
2022/10/11 02:08:38;;;;;;;9.90;3.40;;;;;;;5.21;80.32;101182.37;1661222;86;21009;-67
2022/10/11 02:11:28;;;;;;;7.15;3.83;;;;;;;5.19;80.38;101177.06;1662499;85;21065;-66
2022/10/11 02:14:04;;;;;;;8.50;4.28;;;;;;;5.18;80.27;101181.27;1641369;86;21065;-66
2022/10/11 02:16:38;;;;;;;9.48;4.25;;;;;;;5.18;80.32;101186.21;1651100;86;21098;-65
2022/10/11 02:19:08;;;;;;;8.58;4.20;;;;;;;5.12;80.30;101177.28;1653021;86;21083;-66
2022/10/11 02:21:38;;;;;;;7.20;4.05;;;;;;;5.08;80.47;101178.56;1651355;86;21040;-66
2022/10/11 02:24:12;;;;;;;7.75;3.65;;;;;;;5.08;80.37;101174.48;1661205;86;21036;-65
2022/10/11 02:26:43;;;;;;;8.40;4.10;;;;;;;5.04;80.22;101172.56;1651749;86;21051;-66
2022/10/11 02:29:13;;;;;;;8.33;4.30;;;;;;;5.01;80.28;101170.62;1661742;84;21043;-66
2022/10/11 02:31:43;;;;;;;9.08;4.58;;;;;;;5.02;80.29;101185.92;1668205;84;21071;-65
2022/10/11 02:34:24;;;;;;;13.05;5.03;;;;;;;4.97;80.33;101175.98;1652873;85;21462;-66
2022/10/11 02:37:37;;;;;;;10.25;4.75;;;;;;;4.92;80.33;101175.06;1667387;86;21060;-64
2022/10/11 02:40:12;;;;;;;10.82;4.78;;;;;;;4.86;80.45;101172.05;1635762;86;21071;-65
2022/10/11 02:42:47;;;;;;;12.60;4.78;;;;;;;4.82;80.63;101181.48;1656845;84;21104;-67
2022/10/11 02:45:34;;;;;;;8.08;3.72;;;;;;;4.84;80.75;101175.41;1654216;85;21099;-66
2022/10/11 02:48:04;;;;;;;6.67;3.58;;;;;;;4.87;80.64;101176.48;1659582;86;21486;-65
2022/10/11 02:50:34;;;;;;;8.80;4.05;;;;;;;4.86;80.54;101175.63;1655208;85;21055;-65
2022/10/11 02:53:03;;;;;;;8.13;3.83;;;;;;;4.84;80.56;101176.77;1656489;86;21479;-66
2022/10/11 02:55:33;;;;;;;8.00;3.67;;;;;;;4.82;80.58;101185.55;1673155;86;21087;-66
2022/10/11 02:58:02;;;;;;;10.43;3.70;;;;;;;4.77;80.75;101186.84;1639070;87;21051;-66
2022/10/11 03:00:32;;;;;;;8.38;3.80;;;;;;;4.73;80.76;101179.98;1670077;86;21101;-65
2022/10/11 03:03:02;;;;;;;11.97;4.03;;;;;;;4.69;80.73;101177.19;1651446;86;21047;-66
2022/10/11 03:05:39;;;;;;;7.65;4.03;;;;;;;4.69;80.96;101182.61;1653658;86;21107;-66
2022/10/11 03:08:03;;;;;;;9.48;4.00;;;;;;;4.70;80.91;101180.75;1657007;85;21032;-67
2022/10/11 03:10:33;;;;;;;9.18;3.95;;;;;;;4.67;80.77;101183.25;1652898;85;21019;-66
2022/10/11 03:13:04;;;;;;;12.20;4.45;;;;;;;4.65;80.79;101178.47;1660639;86;21103;-67
2022/10/11 03:15:35;;;;;;;9.85;4.85;;;;;;;4.60;80.88;101184.81;1651362;86;21131;-65
2022/10/11 03:18:05;;;;;;;11.25;5.10;;;;;;;4.59;81.00;101179.03;1659442;85;21072;-68
2022/10/11 03:20:36;;;;;;;10.48;5.30;;;;;;;4.58;81.05;101184.09;1652876;85;21083;-66
2022/10/11 03:23:05;;;;;;;13.05;4.83;;;;;;;4.58;81.10;101180.52;1651448;86;21471;-66
2022/10/11 03:25:35;;;;;;;13.43;5.30;;;;;;;4.56;81.03;101178.45;1660597;85;21505;-64
2022/10/11 03:28:05;;;;;;;7.92;4.28;;;;;;;4.50;81.01;101176.27;1651440;86;21471;-65
2022/10/11 03:30:35;;;;;;;8.25;4.10;;;;;;;4.46;81.01;101176.54;1669934;85;21079;-66
2022/10/11 03:33:05;;;;;;;11.28;4.75;;;;;;;4.45;81.10;101176.68;1651828;85;21537;-65
2022/10/11 03:35:36;;;;;;;15.43;6.05;;;;;;;4.48;81.14;101180.47;1652316;86;21143;-65
2022/10/11 03:38:06;;;;;;;19.02;7.65;;;;;;;4.50;81.12;101181.19;1674280;86;21049;-66
2022/10/11 03:40:37;;;;;;;20.52;8.50;;;;;;;4.49;81.04;101184.04;1653510;85;21075;-66
2022/10/11 03:43:06;;;;;;;21.10;8.43;;;;;;;4.43;81.03;101180.03;1666059;85;21085;-66
2022/10/11 03:45:35;;;;;;;17.62;7.47;;;;;;;4.43;81.16;101180.03;1674029;85;21470;-68
2022/10/11 03:48:05;;;;;;;16.45;6.05;;;;;;;4.45;81.23;101182.11;1664443;85;21113;-65
2022/10/11 03:50:35;;;;;;;12.15;5.12;;;;;;;4.46;81.15;101175.69;1664535;86;21108;-67
2022/10/11 03:53:05;;;;;;;12.98;5.28;;;;;;;4.45;81.08;101177.54;1656466;86;21065;-67
2022/10/11 03:55:36;;;;;;;11.48;5.35;;;;;;;4.44;81.03;101177.18;1655564;86;21739;-66
2022/10/11 03:58:06;;;;;;;8.30;4.50;;;;;;;4.42;81.11;101177.81;1623780;87;21094;-65
2022/10/11 04:00:37;;;;;;;11.83;5.15;;;;;;;4.39;81.12;101177.23;1660395;86;21109;-69
2022/10/11 04:03:06;;;;;;;13.50;5.53;;;;;;;4.36;81.11;101178.87;1636716;86;21087;-67
2022/10/11 04:05:36;;;;;;;10.72;5.50;;;;;;;4.32;81.12;101180.14;1646574;87;21063;-65
2022/10/11 04:08:05;;;;;;;10.20;4.10;;;;;;;4.29;81.14;101181.77;1661862;85;21493;-65
2022/10/11 04:10:39;;;;;;;10.30;4.80;;;;;;;4.26;81.09;101176.13;1673951;85;21065;-65
2022/10/11 04:13:10;;;;;;;9.70;4.28;;;;;;;4.25;81.12;101181.69;1649757;86;21496;-66
2022/10/11 04:15:41;;;;;;;10.28;4.37;;;;;;;4.24;81.25;101181.33;1654581;85;21063;-66
2022/10/11 04:18:10;;;;;;;10.43;4.62;;;;;;;4.22;81.23;101172.47;1645916;85;21532;-67
2022/10/11 04:20:40;;;;;;;10.60;4.33;;;;;;;4.21;81.40;101177.54;1664448;86;21037;-65
2022/10/11 04:23:09;;;;;;;7.42;3.65;;;;;;;4.24;81.48;101183.55;1658392;85;21808;-65
2022/10/11 04:25:40;;;;;;;8.95;3.90;;;;;;;4.26;81.39;101188.34;1654995;86;21037;-64
2022/10/11 04:28:09;;;;;;;10.85;4.35;;;;;;;4.27;81.40;101185.98;1667390;84;21069;-67
2022/10/11 04:30:39;;;;;;;10.08;4.10;;;;;;;4.29;81.39;101192.63;1660892;86;21543;-66
2022/10/11 04:33:10;;;;;;;11.75;4.15;;;;;;;4.26;81.35;101188.83;1658443;85;21469;-67
2022/10/11 04:35:42;;;;;;;9.68;4.92;;;;;;;4.23;81.31;101195.89;1663059;85;21040;-65
2022/10/11 04:38:13;;;;;;;8.30;3.95;;;;;;;4.20;81.36;101197.02;1658476;84;21063;-66
2022/10/11 04:40:44;;;;;;;11.10;4.83;;;;;;;4.19;81.44;101199.87;1652022;86;21043;-64
2022/10/11 04:43:16;;;;;;;11.35;5.30;;;;;;;4.22;81.54;101202.31;1660555;86;21100;-65
2022/10/11 04:45:45;;;;;;;11.35;5.45;;;;;;;4.23;81.53;101201.31;1655411;85;21056;-66
2022/10/11 04:48:15;;;;;;;11.63;4.83;;;;;;;4.26;81.66;101199.19;1653324;85;21083;-65
2022/10/11 04:50:46;;;;;;;11.75;5.83;;;;;;;4.29;81.73;101210.27;1656104;85;21548;-66
2022/10/11 04:53:16;;;;;;;16.93;6.40;;;;;;;4.27;81.76;101206.83;1661460;85;21068;-67
2022/10/11 04:55:59;;;;;;;12.95;5.33;;;;;;;4.28;81.79;101209.90;1664479;85;21104;-66
2022/10/11 04:58:30;;;;;;;15.50;6.30;;;;;;;4.30;81.67;101210.63;1651111;84;21091;-65
2022/10/11 05:00:59;;;;;;;20.30;6.83;;;;;;;4.31;81.64;101209.13;1661153;86;21548;-67
2022/10/11 05:03:29;;;;;;;14.10;6.08;;;;;;;4.34;81.66;101207.99;1650511;86;21089;-68
2022/10/11 05:05:58;;;;;;;16.77;8.30;;;;;;;4.35;81.74;101211.06;1661113;86;21532;-67
2022/10/11 05:08:30;;;;;;;19.12;8.28;;;;;;;4.40;81.79;101204.23;1645675;86;21474;-67
2022/10/11 05:11:06;;;;;;;13.45;8.55;;;;;;;4.45;81.71;101204.67;1665171;85;21068;-66
2022/10/11 05:13:35;;;;;;;17.90;7.67;;;;;;;4.49;81.59;101204.39;1665205;85;21027;-68
2022/10/11 05:16:05;;;;;;;18.77;8.98;;;;;;;4.53;81.48;101205.84;1660182;85;21204;-69
2022/10/11 05:18:35;;;;;;;17.57;8.50;;;;;;;4.53;81.42;101203.98;1653019;85;21057;-66
2022/10/11 05:21:17;;;;;;;17.57;9.20;;;;;;;4.55;81.48;101201.12;1573167;89;21588;-68
2022/10/11 05:23:49;;;;;;;22.35;9.85;;;;;;;4.56;81.46;101198.30;1575493;90;21119;-66
2022/10/11 05:26:19;;;;;;;17.65;8.98;;;;;;;4.59;81.47;101201.23;1573086;90;21087;-66
2022/10/11 05:28:48;;;;;;;20.82;8.03;;;;;;;4.64;81.57;101201.68;1572663;90;21656;-66
2022/10/11 05:31:18;;;;;;;23.57;8.80;;;;;;;4.69;81.56;101201.61;1562809;90;21119;-67
2022/10/11 05:33:48;;;;;;;15.32;8.03;;;;;;;4.72;81.55;101198.62;1577061;90;21099;-66
2022/10/11 05:36:17;;;;;;;14.18;6.80;;;;;;;4.77;81.64;101199.06;1560047;90;21132;-66
2022/10/11 05:38:46;;;;;;;13.20;7.15;;;;;;;4.83;81.68;101200.34;1583683;89;21135;-66
2022/10/11 05:41:16;;;;;;;16.52;7.40;;;;;;;4.88;81.64;101193.99;1562951;90;21589;-66
2022/10/11 05:43:46;;;;;;;13.38;6.45;;;;;;;4.96;81.62;101193.28;1578195;90;21080;-65
2022/10/11 05:46:17;;;;;;;15.65;6.37;;;;;;;5.01;81.57;101188.28;1621881;86;21052;-68
2022/10/11 05:48:48;;;;;;;18.87;6.87;;;;;;;5.07;81.56;101190.43;1653338;86;21068;-65
2022/10/11 05:51:19;;;;;;;12.73;5.95;;;;;;;5.11;81.52;101190.50;1658094;86;21008;-68
2022/10/11 05:53:49;;;;;;;14.33;6.80;;;;;;;5.14;81.46;101194.29;1652993;86;21044;-64
2022/10/11 05:56:23;;;;;;;16.80;6.20;;;;;;;5.22;81.51;101194.96;1649647;86;21471;-67
2022/10/11 05:58:53;;;;;;;14.60;5.97;;;;;;;5.29;81.49;101196.10;1643871;85;21479;-66
2022/10/11 06:01:26;;;;;;;14.80;7.45;;;;;;;5.37;81.40;101195.73;1657469;85;21054;-66
2022/10/11 06:03:54;;;;;;;13.70;6.45;;;;;;;5.45;81.37;101193.66;1663052;85;21091;-66
2022/10/11 06:06:23;;;;;;;15.45;6.72;;;;;;;5.51;81.38;101190.86;1654837;84;21031;-69
2022/10/11 06:08:53;;;;;;;10.05;5.00;;;;;;;5.57;81.40;101191.12;1658582;86;21537;-65
2022/10/11 06:11:25;;;;;;;15.83;5.08;;;;;;;5.65;81.41;101193.11;1658840;84;21067;-68
2022/10/11 06:13:59;;;;;;;17.27;4.58;;;;;;;5.73;81.34;101200.89;1645478;86;21069;-65
2022/10/11 06:16:28;;;;;;;13.68;4.50;;;;;;;5.83;81.25;101197.29;1665202;84;21054;-67
2022/10/11 06:18:59;;;;;;;16.50;4.87;;;;;;;5.92;81.24;101204.62;1647757;85;21069;-66
2022/10/11 06:21:29;;;;;;;11.33;4.17;;;;;;;5.98;81.15;101204.89;1656108;85;21509;-67
2022/10/11 06:24:00;;;;;;;10.80;4.50;;;;;;;6.04;81.06;101198.85;1664247;85;21043;-68
2022/10/11 06:26:31;;;;;;;13.70;4.47;;;;;;;6.12;80.97;101195.39;1655860;85;21490;-67
2022/10/11 06:29:00;;;;;;;13.05;4.37;;;;;;;6.21;80.80;101199.93;1659727;85;21057;-67
2022/10/11 06:31:30;;;;;;;13.28;4.12;;;;;;;6.27;80.74;101200.69;1676951;85;21076;-66
2022/10/11 06:34:00;;;;;;;10.38;4.20;;;;;;;6.32;80.68;101202.45;1672957;85;21421;-65
2022/10/11 06:36:30;;;;;;;8.60;3.83;;;;;;;6.38;80.61;101199.63;1665515;85;21505;-66
2022/10/11 06:39:00;;;;;;;8.88;3.85;;;;;;;6.43;80.47;101200.04;1644964;85;21458;-68
2022/10/11 06:41:29;;;;;;;9.13;3.70;;;;;;;6.50;80.23;101189.40;1664051;85;21037;-66
2022/10/11 06:43:58;;;;;;;12.05;4.05;;;;;;;6.55;80.01;101193.41;1664615;85;21058;-67
2022/10/11 06:46:28;;;;;;;10.05;4.17;;;;;;;6.63;79.92;101190.78;1655931;85;21082;-68
2022/10/11 06:48:57;;;;;;;9.63;4.12;;;;;;;6.72;79.73;101189.51;1663976;85;21090;-67
2022/10/11 06:51:28;;;;;;;11.57;4.50;;;;;;;6.77;79.59;101187.18;1656042;85;21621;-66
2022/10/11 06:53:58;;;;;;;10.63;4.28;;;;;;;6.84;79.44;101187.77;1666750;85;21075;-67
2022/10/11 06:56:28;;;;;;;10.18;4.10;;;;;;;6.91;79.21;101183.41;1676547;85;21481;-69
2022/10/11 06:58:58;;;;;;;9.90;4.15;;;;;;;6.99;78.91;101181.28;1659250;85;21479;-66
2022/10/11 07:01:27;;;;;;;6.00;3.27;;;;;;;7.05;78.58;101183.38;1676729;85;21081;-70
2022/10/11 07:03:57;;;;;;;9.80;3.70;;;;;;;7.13;78.17;101183.45;1657406;85;21135;-66
2022/10/11 07:06:27;;;;;;;7.22;3.10;;;;;;;7.21;77.78;101180.84;1670282;85;21097;-65
2022/10/11 07:08:59;;;;;;;9.85;3.65;;;;;;;7.27;77.44;101181.57;1666333;85;21564;-67
2022/10/11 07:11:29;;;;;;;13.95;3.20;;;;;;;7.35;77.26;101184.02;1661239;85;21445;-65
2022/10/11 07:14:06;;;;;;;9.25;3.52;;;;;;;7.43;76.83;101178.63;1628678;86;21791;-66
2022/10/11 07:16:38;;;;;;;8.28;3.65;;;;;;;7.52;76.33;101179.05;1606612;88;21588;-66
2022/10/11 07:19:09;;;;;;;8.43;3.30;;;;;;;7.61;76.00;101184.91;1619198;88;21278;-67
2022/10/11 07:21:40;;;;;;;5.78;2.55;;;;;;;7.66;75.80;101181.19;1552923;91;21552;-66
2022/10/11 07:24:10;;;;;;;6.15;2.90;;;;;;;7.73;75.48;101175.95;1557864;91;21093;-67
2022/10/11 07:26:41;;;;;;;9.15;3.08;;;;;;;7.78;75.02;101170.36;1554982;91;21078;-66
2022/10/11 07:29:11;;;;;;;6.70;2.47;;;;;;;7.86;74.72;101162.25;1533632;93;21213;-66
2022/10/11 07:31:42;;;;;;;6.78;2.65;;;;;;;7.94;74.22;101171.86;1529814;91;21503;-66
2022/10/11 07:34:12;;;;;;;6.47;2.27;;;;;;;8.04;73.56;101172.25;1568647;91;21137;-66
2022/10/11 07:36:43;;;;;;;4.90;2.10;;;;;;;8.11;73.24;101161.88;1581725;91;21086;-67
2022/10/11 07:39:13;;;;;;;5.17;2.12;;;;;;;8.18;72.66;101166.17;1572100;87;21056;-66
2022/10/11 07:41:42;;;;;;;4.55;1.52;;;;;;;8.31;72.34;101162.48;1628891;87;21049;-67
2022/10/11 07:44:14;;;;;;;3.60;1.22;;;;;;;8.67;72.14;101161.81;1626769;86;21092;-66
2022/10/11 07:46:43;;;;;;;2.52;1.20;;;;;;;9.24;70.35;101156.96;1664564;84;21037;-69
2022/10/11 07:49:12;;;;;;;3.47;1.50;;;;;;;9.84;68.66;101154.19;1669628;85;21466;-65
2022/10/11 07:51:42;;;;;;;4.05;1.00;;;;;;;10.48;66.72;101151.45;1656377;85;21473;-66
2022/10/11 07:54:12;;;;;;;2.52;1.10;;;;;;;11.15;65.12;101146.78;1670238;85;21041;-66
2022/10/11 07:56:40;;;;;;;4.42;1.20;;;;;;;11.77;62.89;101139.73;1666405;84;21486;-64
2022/10/11 07:59:10;;;;;;;2.92;1.45;;;;;;;12.32;60.37;101137.92;1656501;85;21509;-67
2022/10/11 08:01:40;;;;;;;4.72;1.00;;;;;;;12.77;58.64;101134.59;1616354;85;21511;-63
2022/10/11 08:04:09;;;;;;;1.75;1.10;;;;;;;13.26;56.71;101134.74;1660876;85;21039;-66
2022/10/11 08:06:40;;;;;;;1.87;1.05;;;;;;;13.78;54.33;101132.13;1673004;85;21057;-66
2022/10/11 08:09:10;;;;;;;2.92;1.12;;;;;;;14.17;52.56;101135.14;1683871;85;21982;-66
2022/10/11 08:11:40;;;;;;;2.83;1.30;;;;;;;14.47;51.26;101134.41;1667719;85;21012;-67
2022/10/11 08:14:10;;;;;;;5.00;1.60;;;;;;;14.65;50.96;101133.84;1656131;85;21487;-67
2022/10/11 08:16:41;;;;;;;4.10;1.60;;;;;;;14.86;49.92;101135.60;1654420;85;21033;-67
2022/10/11 08:19:10;;;;;;;8.38;1.70;;;;;;;15.10;48.19;101132.30;1652114;86;21028;-65
2022/10/11 08:21:40;;;;;;;3.30;1.32;;;;;;;15.20;47.40;101134.11;1658449;85;21460;-67
2022/10/11 08:24:19;;;;;;;4.08;1.47;;;;;;;15.15;47.09;101123.38;1664137;86;21081;-66
2022/10/11 08:26:42;;;;;;;3.22;1.80;;;;;;;15.14;46.88;101126.67;1643227;85;21065;-67
2022/10/11 08:29:13;;;;;;;2.45;1.40;;;;;;;15.24;46.71;101129.02;1655119;85;21126;-66
2022/10/11 08:31:43;;;;;;;11.75;5.55;;;;;;;15.27;46.33;101132.74;1653000;86;21035;-67
2022/10/11 08:34:13;;;;;;;4.28;1.95;;;;;;;15.20;46.14;101135.50;1649465;86;21047;-66
2022/10/11 08:36:42;;;;;;;3.67;1.60;;;;;;;15.05;45.20;101135.36;1658000;86;21073;-67
2022/10/11 08:39:11;;;;;;;2.27;1.60;;;;;;;14.80;46.23;101129.00;1667782;85;21120;-65
2022/10/11 08:41:49;;;;;;;3.27;1.60;;;;;;;14.61;46.19;101126.19;1659237;86;21033;-66
2022/10/11 08:44:46;;;;;;;3.75;1.40;;;;;;;14.47;46.71;101127.51;1634476;85;21048;-66
2022/10/11 08:47:40;;;;;;;4.70;1.60;;;;;;;14.31;47.10;101125.59;1652457;85;21101;-67
2022/10/11 08:50:20;;;;;;;4.33;1.70;;;;;;;14.15;47.36;101126.23;1623629;85;21078;-67
2022/10/11 08:53:07;;;;;;;7.22;1.55;;;;;;;14.03;46.90;101122.86;1654631;84;21029;-69
2022/10/11 08:55:44;;;;;;;6.45;1.10;;;;;;;13.95;47.36;101109.58;1646588;86;21075;-69
2022/10/11 08:58:40;;;;;;;2.42;1.10;;;;;;;13.85;46.80;101112.38;1651206;86;21044;-65
2022/10/11 09:01:14;;;;;;;4.28;1.25;;;;;;;13.72;46.79;101107.63;1643933;86;21037;-69
2022/10/11 09:03:44;;;;;;;2.65;1.35;;;;;;;13.58;47.73;101117.66;1640745;86;21061;-68
2022/10/11 09:06:25;;;;;;;3.27;1.07;;;;;;;13.48;48.38;101113.02;1659762;86;21011;-68
2022/10/11 09:09:37;;;;;;;1.90;1.12;;;;;;;13.41;48.48;101110.73;1662581;86;21080;-66
2022/10/11 09:12:14;;;;;;;3.77;1.50;;;;;;;13.31;48.17;101110.23;1664409;86;21090;-67
2022/10/11 09:15:13;;;;;;;3.67;1.15;;;;;;;13.23;47.46;101107.09;1666189;86;21060;-67
2022/10/11 09:17:56;;;;;;;5.92;1.20;;;;;;;13.23;48.43;101111.75;1654980;85;21075;-68
2022/10/11 09:20:54;;;;;;;4.00;1.27;;;;;;;13.15;49.11;101106.34;1647151;85;21028;-68
2022/10/11 09:23:49;;;;;;;5.05;1.40;;;;;;;13.11;49.17;101106.41;1655725;85;21513;-68
2022/10/11 09:26:36;;;;;;;3.02;1.30;;;;;;;13.05;49.89;101105.30;1654971;85;21060;-69
2022/10/11 09:29:36;;;;;;;1.67;1.30;;;;;;;13.01;50.13;101103.47;1645350;85;21060;-67
2022/10/11 09:32:11;;;;;;;2.62;1.50;;;;;;;12.98;49.92;101096.09;1672066;85;21071;-69
2022/10/11 09:34:41;;;;;;;3.72;1.60;;;;;;;12.97;50.41;101099.38;1655668;85;21067;-69
2022/10/11 09:37:28;;;;;;;2.87;1.47;;;;;;;12.96;50.65;101103.17;1645346;85;21068;-69
2022/10/11 09:40:11;;;;;;;2.15;1.30;;;;;;;12.92;50.63;101093.61;1664368;85;21123;-67
2022/10/11 09:42:41;;;;;;;3.62;1.80;;;;;;;12.89;50.61;101096.75;1663335;85;21045;-67
2022/10/11 09:45:19;;;;;;;4.22;1.90;;;;;;;12.86;50.51;101097.14;1655955;85;21031;-67
2022/10/11 09:47:52;;;;;;;3.87;2.08;;;;;;;12.83;50.77;101093.41;1584338;89;21511;-68
2022/10/11 09:50:28;;;;;;;5.72;2.85;;;;;;;12.78;50.73;101092.30;1580481;89;21085;-69
2022/10/11 09:53:03;;;;;;;4.30;2.58;;;;;;;12.75;50.95;101089.93;1603385;89;21097;-68
2022/10/11 09:55:42;;;;;;;4.92;2.92;;;;;;;12.72;51.26;101084.30;1584096;89;21134;-68
2022/10/11 09:58:33;;;;;;;7.05;3.67;;;;;;;12.73;51.79;101084.63;1583766;89;21115;-69
2022/10/11 10:01:07;;;;;;;5.83;3.15;;;;;;;12.73;52.06;101082.41;1593345;89;21469;-68
2022/10/11 10:03:45;;;;;;;6.42;3.30;;;;;;;12.74;51.79;101084.95;1589980;89;21131;-69
2022/10/11 10:06:23;;;;;;;5.65;3.42;;;;;;;12.72;51.46;101088.42;1644903;84;21513;-67
2022/10/11 10:08:54;;;;;;;6.67;4.30;;;;;;;12.72;51.67;101080.17;1659713;85;21451;-68
2022/10/11 10:11:24;;;;;;;10.35;4.35;;;;;;;12.73;51.57;101083.77;1645219;86;21071;-68
2022/10/11 10:13:55;;;;;;;7.80;4.47;;;;;;;12.71;51.89;101072.97;1664040;85;21063;-67
2022/10/11 10:16:32;;;;;;;5.92;4.08;;;;;;;12.73;51.89;101072.25;1645093;86;21110;-66
2022/10/11 10:19:05;;;;;;;4.83;3.45;;;;;;;12.74;51.62;101078.08;1653863;86;21502;-68
2022/10/11 10:21:44;;;;;;;8.60;5.00;;;;;;;12.75;51.41;101071.53;1648517;86;21084;-67
2022/10/11 10:24:34;;;;;;;8.80;5.05;;;;;;;12.76;51.13;101064.13;1649927;86;21091;-67
2022/10/11 10:27:22;;;;;;;6.95;4.50;;;;;;;12.74;51.11;101067.08;1663074;86;21507;-68
2022/10/11 10:30:15;;;;;;;11.28;4.95;;;;;;;12.73;51.09;101065.91;1653595;86;21084;-68
2022/10/11 10:33:09;;;;;;;9.60;5.05;;;;;;;12.72;51.01;101065.05;1650398;86;21528;-67
2022/10/11 10:35:53;;;;;;;9.78;4.95;;;;;;;12.73;51.08;101053.53;1658310;86;21074;-67
2022/10/11 10:38:42;;;;;;;7.20;4.55;;;;;;;12.75;50.74;101059.69;1652281;86;21052;-69
2022/10/11 10:41:12;;;;;;;9.93;5.15;;;;;;;12.76;50.56;101057.27;1664973;86;21108;-66
2022/10/11 10:43:44;;;;;;;9.48;4.30;;;;;;;12.77;49.44;101050.19;1652930;86;21043;-67
2022/10/11 10:46:46;;;;;;;7.60;3.52;;;;;;;12.79;49.52;101049.47;1650147;86;21476;-69
2022/10/11 10:49:37;;;;;;;7.45;4.12;;;;;;;12.84;49.52;101049.73;1657283;86;21075;-68
2022/10/11 10:52:47;;;;;;;11.05;5.72;;;;;;;12.90;48.81;101043.44;1657938;85;21101;-68
2022/10/11 10:55:43;;;;;;;12.70;6.75;;;;;;;12.99;48.92;101041.41;1657559;85;21098;-66
2022/10/11 10:58:39;;;;;;;11.63;6.10;;;;;;;13.04;49.25;101034.81;1661149;85;21081;-66
2022/10/11 11:01:23;;;;;;;7.35;4.33;;;;;;;13.08;49.14;101033.37;1646578;85;21063;-68
2022/10/11 11:04:10;;;;;;;7.35;3.83;;;;;;;13.14;48.67;101032.58;1652554;86;21103;-66
2022/10/11 11:06:56;;;;;;;6.78;3.65;;;;;;;13.16;47.50;101029.63;1667361;85;21493;-69
2022/10/11 11:09:54;;;;;;;5.35;3.47;;;;;;;13.15;46.84;101028.77;1658140;86;21069;-67
2022/10/11 11:12:49;;;;;;;8.85;3.87;;;;;;;13.15;46.48;101019.67;1653250;86;21095;-67
2022/10/11 11:15:40;;;;;;;7.30;3.85;;;;;;;13.16;46.11;101015.87;1649785;86;21087;-68
2022/10/11 11:18:30;;;;;;;9.40;4.03;;;;;;;13.19;45.82;101015.50;1649866;86;21087;-66
2022/10/11 11:21:29;;;;;;;7.72;3.50;;;;;;;13.25;44.48;101012.80;1640797;86;21043;-67
2022/10/11 11:24:42;;;;;;;5.78;2.80;;;;;;;13.29;44.52;101013.25;1652983;86;21537;-68
2022/10/11 11:27:41;;;;;;;5.97;2.40;;;;;;;13.36;44.23;101006.41;1622393;85;21037;-68
2022/10/11 11:30:20;;;;;;;5.72;2.62;;;;;;;13.38;44.21;101007.91;1657841;85;21041;-66
2022/10/11 11:33:20;;;;;;;5.87;3.58;;;;;;;13.41;44.30;101002.53;1663038;84;21025;-66
2022/10/11 11:35:57;;;;;;;7.80;3.55;;;;;;;13.43;44.57;101002.66;1667240;85;21084;-68
2022/10/11 11:38:47;;;;;;;7.55;3.85;;;;;;;13.44;44.68;100993.87;1658276;85;21033;-68
2022/10/11 11:41:25;;;;;;;6.25;3.30;;;;;;;13.47;44.41;100997.06;1652258;86;21515;-68
2022/10/11 11:44:17;;;;;;;5.62;3.02;;;;;;;13.49;44.59;100989.45;1653008;86;21086;-68
2022/10/11 11:47:01;;;;;;;4.90;2.70;;;;;;;13.50;44.21;100991.16;1657679;86;21069;-67
2022/10/11 11:49:38;;;;;;;6.67;2.30;;;;;;;13.53;43.58;100988.00;1658504;86;21071;-67
2022/10/11 11:52:18;;;;;;;5.65;2.10;;;;;;;13.55;43.08;100992.77;1659072;86;21041;-70
2022/10/11 11:54:53;;;;;;;5.42;2.00;;;;;;;13.58;42.79;100984.11;1667242;86;21057;-68
2022/10/11 11:57:53;;;;;;;5.65;1.70;;;;;;;13.63;42.26;100981.59;1654844;86;21105;-68
2022/10/11 12:00:32;;;;;;;5.78;1.80;;;;;;;13.66;42.14;100977.61;1649719;86;21063;-67
2022/10/11 12:03:12;;;;;;;4.42;2.02;;;;;;;13.68;42.35;100976.03;1648334;86;21964;-65
2022/10/11 12:06:03;;;;;;;2.58;1.60;;;;;;;13.68;42.48;100981.54;1662302;86;21037;-67
2022/10/11 12:08:33;;;;;;;4.17;2.12;;;;;;;13.68;42.66;100976.88;1649319;86;21044;-67